createdAt,value
2022-12-19T00:00:36.997Z,12.57
2022-12-19T00:03:09.588Z,18.57
2022-12-19T00:05:40.801Z,24.77
2022-12-19T00:08:18.134Z,16.73
2022-12-19T00:10:48.498Z,15.43
2022-12-19T00:13:21.217Z,14.03
2022-12-19T00:15:51.516Z,13.27
2022-12-19T00:18:24.179Z,13.97
2022-12-19T00:21:01.674Z,11.00
2022-12-19T00:23:33.188Z,14.03
2022-12-19T00:26:11.080Z,13.97
2022-12-19T00:28:41.156Z,14.60
2022-12-19T00:31:15.810Z,13.73
2022-12-19T00:33:48.609Z,14.48
2022-12-19T00:36:22.845Z,13.87
2022-12-19T00:38:54.019Z,12.57
2022-12-19T00:41:25.725Z,13.53
2022-12-19T00:43:56.777Z,13.47
2022-12-19T00:46:27.385Z,12.97
2022-12-19T00:49:00.238Z,15.70
2022-12-19T00:51:31.942Z,13.13
2022-12-19T00:54:02.381Z,12.67
2022-12-19T00:56:38.420Z,13.70
2022-12-19T00:59:10.686Z,14.33
2022-12-19T01:01:43.801Z,12.10
2022-12-19T01:04:28.315Z,15.67
2022-12-19T01:07:01.735Z,15.83
2022-12-19T01:09:35.131Z,12.27
2022-12-19T01:12:17.975Z,13.87
2022-12-19T01:14:48.226Z,14.37
2022-12-19T01:17:18.413Z,15.07
2022-12-19T01:19:50.954Z,12.27
2022-12-19T01:22:20.893Z,16.53
2022-12-19T01:24:50.794Z,13.33
2022-12-19T01:27:20.750Z,16.37
2022-12-19T01:29:52.202Z,15.43
2022-12-19T01:32:24.449Z,15.53
2022-12-19T01:34:57.261Z,16.77
2022-12-19T01:37:27.199Z,13.20
2022-12-19T01:39:57.103Z,14.10
2022-12-19T01:42:27.040Z,16.33
2022-12-19T01:45:33.125Z,17.33
2022-12-19T01:48:09.777Z,14.60
2022-12-19T01:51:01.982Z,15.80
2022-12-19T01:53:45.179Z,13.73
2022-12-19T01:56:19.959Z,15.27
2022-12-19T01:58:58.904Z,16.37
2022-12-19T02:01:44.987Z,18.03
2022-12-19T02:04:26.053Z,15.10
2022-12-19T02:07:08.162Z,11.07
2022-12-19T02:09:53.003Z,17.33
2022-12-19T02:12:34.160Z,15.98
2022-12-19T02:15:05.518Z,16.17
2022-12-19T02:17:46.456Z,17.40
2022-12-19T02:20:48.102Z,12.27
2022-12-19T02:23:39.975Z,15.63
2022-12-19T02:26:30.209Z,15.10
2022-12-19T02:29:34.994Z,12.20
2022-12-19T02:32:11.962Z,16.92
2022-12-19T02:34:48.672Z,16.50
2022-12-19T02:37:23.693Z,16.90
2022-12-19T02:39:58.464Z,17.50
2022-12-19T02:42:32.879Z,17.30
2022-12-19T02:45:08.061Z,16.37
2022-12-19T02:47:42.119Z,14.73
2022-12-19T02:50:13.914Z,17.50
2022-12-19T02:52:48.861Z,18.27
2022-12-19T02:55:25.469Z,17.13
2022-12-19T02:58:22.236Z,16.40
2022-12-19T03:01:00.337Z,15.70
2022-12-19T03:03:42.518Z,18.17
2022-12-19T03:06:21.005Z,19.97
2022-12-19T03:08:58.418Z,17.20
2022-12-19T03:11:31.569Z,15.57
2022-12-19T03:14:04.824Z,17.27
2022-12-19T03:16:37.556Z,18.43
2022-12-19T03:19:13.620Z,16.30
2022-12-19T03:21:46.224Z,16.80
2022-12-19T03:24:16.824Z,17.67
2022-12-19T03:26:51.691Z,17.87
2022-12-19T03:29:28.266Z,17.40
2022-12-19T03:32:00.095Z,18.20
2022-12-19T03:34:39.360Z,16.37
2022-12-19T03:37:14.343Z,16.73
2022-12-19T03:39:48.309Z,17.43
2022-12-19T03:42:33.933Z,18.85
2022-12-19T03:45:06.557Z,19.63
2022-12-19T03:47:40.012Z,19.97
2022-12-19T03:50:13.402Z,20.63
2022-12-19T03:52:49.687Z,19.50
2022-12-19T03:55:23.983Z,17.23
2022-12-19T03:57:59.254Z,16.98
2022-12-19T04:00:30.303Z,21.33
2022-12-19T04:03:02.269Z,17.00
2022-12-19T04:05:36.470Z,17.10
2022-12-19T04:08:09.408Z,21.88
2022-12-19T04:10:49.573Z,25.13
2022-12-19T04:13:23.235Z,21.13
2022-12-19T04:15:59.200Z,14.35
2022-12-19T04:18:33.041Z,16.70
2022-12-19T04:21:11.275Z,15.83
2022-12-19T04:23:45.397Z,21.43
2022-12-19T04:26:17.743Z,20.70
2022-12-19T04:28:52.406Z,19.57
2022-12-19T04:31:23.938Z,18.07
2022-12-19T04:33:53.968Z,19.03
2022-12-19T04:36:27.907Z,19.37
2022-12-19T04:38:57.886Z,17.60
2022-12-19T04:41:27.850Z,19.53
2022-12-19T04:43:57.816Z,21.10
2022-12-19T04:46:27.796Z,15.93
2022-12-19T04:48:57.739Z,18.67
2022-12-19T04:51:30.530Z,18.00
2022-12-19T04:54:00.428Z,17.93
2022-12-19T04:56:30.392Z,20.63
2022-12-19T04:59:01.877Z,20.23
2022-12-19T05:01:31.875Z,16.60
2022-12-19T05:04:04.681Z,17.23
2022-12-19T05:06:37.520Z,17.97
2022-12-19T05:09:07.475Z,18.20
2022-12-19T05:11:37.426Z,17.63
2022-12-19T05:14:07.364Z,17.50
2022-12-19T05:16:37.303Z,18.37
2022-12-19T05:19:07.290Z,17.10
2022-12-19T05:21:39.778Z,18.53
2022-12-19T05:24:10.560Z,15.23
2022-12-19T05:26:40.586Z,18.43
2022-12-19T05:29:11.399Z,17.77
2022-12-19T05:31:41.382Z,19.13
2022-12-19T05:34:11.453Z,16.17
2022-12-19T05:36:43.989Z,18.13
2022-12-19T05:39:14.362Z,18.60
2022-12-19T05:41:47.593Z,18.30
2022-12-19T05:44:19.518Z,16.43
2022-12-19T05:46:49.569Z,18.93
2022-12-19T05:49:19.699Z,17.40
2022-12-19T05:51:52.786Z,18.40
2022-12-19T05:54:22.756Z,20.67
2022-12-19T05:56:52.699Z,18.67
2022-12-19T05:59:22.693Z,17.87
2022-12-19T06:01:52.643Z,17.33
2022-12-19T06:04:22.673Z,16.90
2022-12-19T06:06:55.123Z,19.97
2022-12-19T06:09:25.357Z,20.00
2022-12-19T06:11:55.655Z,18.70
2022-12-19T06:14:25.982Z,17.23
2022-12-19T06:16:56.237Z,20.17
2022-12-19T06:19:26.436Z,20.73
2022-12-19T06:21:58.940Z,22.00
2022-12-19T06:24:29.055Z,20.50
2022-12-19T06:26:59.068Z,20.17
2022-12-19T06:29:29.319Z,17.70
2022-12-19T06:31:59.292Z,21.10
2022-12-19T06:35:02.158Z,20.40
2022-12-19T06:37:22.154Z,17.83
2022-12-19T06:39:53.665Z,19.07
2022-12-19T06:42:24.033Z,18.10
2022-12-19T06:44:56.107Z,19.63
2022-12-19T06:47:27.035Z,19.53
2022-12-19T06:49:57.224Z,18.80
2022-12-19T06:52:29.736Z,16.60
2022-12-19T06:55:00.012Z,18.13
2022-12-19T06:57:29.918Z,20.37
2022-12-19T07:00:00.981Z,18.97
2022-12-19T07:02:34.669Z,18.97
2022-12-19T07:05:08.242Z,13.35
2022-12-19T07:07:41.322Z,17.10
2022-12-19T07:10:13.005Z,17.30
2022-12-19T07:12:42.974Z,19.33
2022-12-19T07:15:13.818Z,19.97
2022-12-19T07:17:43.817Z,20.80
2022-12-19T07:20:15.251Z,18.07
2022-12-19T07:22:48.378Z,21.53
2022-12-19T07:25:19.068Z,20.07
2022-12-19T07:27:50.318Z,17.83
2022-12-19T07:30:20.600Z,23.20
2022-12-19T07:32:50.511Z,21.00
2022-12-19T07:35:22.246Z,20.90
2022-12-19T07:37:54.730Z,21.13
2022-12-19T07:40:24.869Z,19.17
2022-12-19T07:42:54.870Z,20.60
2022-12-19T07:45:25.068Z,20.23
2022-12-19T07:47:54.989Z,21.67
2022-12-19T07:50:24.964Z,20.27
2022-12-19T07:52:57.708Z,20.93
2022-12-19T07:55:27.681Z,18.13
2022-12-19T07:57:58.180Z,17.67
2022-12-19T08:00:28.063Z,22.90
2022-12-19T08:02:58.050Z,20.63
2022-12-19T08:05:28.841Z,21.70
2022-12-19T08:08:01.344Z,19.80
2022-12-19T08:10:31.252Z,19.87
2022-12-19T08:13:01.189Z,20.77
2022-12-19T08:15:31.170Z,20.13
2022-12-19T08:18:01.691Z,18.57
2022-12-19T08:20:31.613Z,24.03
2022-12-19T08:23:04.205Z,19.00
2022-12-19T08:25:34.108Z,19.80
2022-12-19T08:28:04.217Z,19.17
2022-12-19T08:30:34.212Z,18.97
2022-12-19T08:33:05.927Z,18.37
2022-12-19T08:35:36.220Z,19.97
2022-12-19T08:40:28.671Z,20.40
2022-12-19T08:42:58.863Z,20.13
2022-12-19T08:45:29.099Z,22.47
2022-12-19T08:47:59.060Z,20.33
2022-12-19T08:50:29.121Z,18.93
2022-12-19T08:52:59.357Z,18.60
2022-12-19T08:55:31.879Z,19.77
2022-12-19T08:58:01.890Z,16.93
2022-12-19T09:00:31.828Z,26.10
2022-12-19T09:03:01.944Z,21.23
2022-12-19T09:06:03.332Z,21.77
2022-12-19T09:08:21.996Z,19.07
2022-12-19T09:10:59.697Z,18.90
2022-12-19T09:13:30.924Z,18.13
2022-12-19T09:16:05.603Z,21.67
2022-12-19T09:18:36.271Z,16.93
2022-12-19T09:21:07.912Z,20.50
2022-12-19T09:23:38.899Z,17.83
2022-12-19T09:26:13.928Z,25.63
2022-12-19T09:28:44.569Z,24.63
2022-12-19T09:31:16.782Z,21.37
2022-12-19T09:33:47.151Z,17.17
2022-12-19T09:36:19.065Z,18.50
2022-12-19T09:38:49.552Z,19.63
2022-12-19T09:41:42.275Z,22.77
2022-12-19T09:44:26.869Z,19.37
2022-12-19T09:46:59.846Z,19.00
2022-12-19T09:49:33.884Z,21.07
2022-12-19T09:52:15.053Z,17.63
2022-12-19T09:54:49.017Z,19.67
2022-12-19T09:57:27.261Z,17.95
2022-12-19T10:00:02.881Z,24.17
2022-12-19T10:02:42.304Z,21.27
2022-12-19T10:05:32.976Z,22.73
2022-12-19T10:08:20.514Z,18.73
2022-12-19T10:12:37.820Z,19.53
2022-12-19T10:14:10.794Z,18.87
2022-12-19T10:17:08.956Z,21.00
2022-12-19T10:19:50.793Z,21.20
2022-12-19T10:22:30.325Z,20.43
2022-12-19T10:25:12.277Z,18.50
2022-12-19T10:27:58.736Z,20.17
2022-12-19T10:30:37.835Z,19.63
2022-12-19T10:33:21.162Z,20.70
2022-12-19T10:36:02.362Z,23.63
2022-12-19T10:38:39.344Z,19.57
2022-12-19T10:41:20.389Z,19.97
2022-12-19T10:43:59.593Z,22.93
2022-12-19T10:46:41.368Z,19.13
2022-12-19T10:49:17.082Z,21.20
2022-12-19T10:51:59.951Z,18.60
2022-12-19T10:54:41.934Z,21.13
2022-12-19T10:57:25.394Z,22.20
2022-12-19T11:00:00.481Z,22.00
2022-12-19T11:02:42.598Z,18.57
2022-12-19T11:05:28.074Z,21.60
2022-12-19T11:08:06.848Z,20.80
2022-12-19T11:12:03.597Z,20.13
2022-12-19T11:18:47.483Z,19.13
2022-12-19T11:22:41.234Z,17.83
2022-12-19T11:29:38.303Z,19.17
2022-12-19T11:30:07.046Z,19.93
2022-12-19T11:30:09.082Z,20.10
2022-12-19T11:30:46.076Z,26.10
2022-12-19T11:34:09.996Z,19.27
2022-12-19T11:36:50.651Z,21.53
2022-12-19T11:39:25.644Z,19.07
2022-12-19T11:42:03.453Z,18.30
2022-12-19T11:44:38.056Z,19.30
2022-12-19T11:47:19.854Z,23.33
2022-12-19T11:49:58.051Z,20.23
2022-12-19T11:55:35.600Z,18.07
2022-12-19T11:58:05.516Z,19.90
2022-12-19T12:00:36.567Z,20.53
2022-12-19T12:03:39.695Z,20.60
2022-12-19T12:06:15.465Z,18.53
2022-12-19T12:12:10.431Z,21.60
2022-12-19T12:19:08.579Z,17.27
2022-12-19T12:24:16.479Z,20.63
2022-12-19T12:31:13.693Z,18.17
2022-12-19T12:31:27.719Z,19.20
2022-12-19T12:31:51.388Z,19.23
2022-12-19T12:31:52.226Z,19.80
2022-12-19T12:31:53.909Z,17.07
2022-12-19T12:35:28.675Z,16.63
2022-12-19T12:37:51.093Z,16.27
2022-12-19T12:39:00.411Z,21.05
2022-12-19T12:41:55.377Z,17.83
2022-12-19T12:44:32.677Z,17.58
2022-12-19T12:47:11.665Z,17.57
2022-12-19T12:49:45.817Z,18.67
2022-12-19T12:52:19.815Z,18.27
2022-12-19T12:54:53.282Z,18.67
2022-12-19T12:57:36.983Z,16.20
2022-12-19T13:00:29.196Z,14.40
2022-12-19T13:03:07.127Z,16.20
2022-12-19T13:05:43.820Z,17.20
2022-12-19T13:08:39.558Z,17.20
2022-12-19T13:11:37.821Z,19.67
2022-12-19T13:14:09.216Z,17.00
2022-12-19T13:16:59.964Z,19.53
2022-12-19T13:19:32.500Z,16.47
2022-12-19T13:22:19.309Z,18.90
2022-12-19T13:24:52.797Z,18.10
2022-12-19T13:27:50.513Z,16.37
2022-12-19T13:30:22.546Z,17.23
2022-12-19T13:33:12.462Z,19.03
2022-12-19T13:39:32.679Z,16.70
2022-12-19T13:39:56.172Z,16.97
2022-12-19T13:41:44.421Z,16.73
2022-12-19T13:44:20.853Z,16.05
2022-12-19T13:46:51.457Z,17.30
2022-12-19T13:49:28.478Z,16.00
2022-12-19T13:52:01.507Z,16.73
2022-12-19T13:54:34.883Z,19.67
2022-12-19T13:57:09.761Z,16.10
2022-12-19T13:59:48.525Z,18.00
2022-12-19T14:02:43.684Z,16.90
2022-12-19T14:06:15.094Z,18.63
2022-12-19T14:08:22.179Z,18.70
2022-12-19T14:11:31.400Z,18.73
2022-12-19T14:14:08.273Z,18.07
2022-12-19T14:16:48.232Z,16.20
2022-12-19T14:19:23.257Z,17.50
2022-12-19T14:22:09.663Z,15.90
2022-12-19T14:24:44.268Z,18.30
2022-12-19T14:28:23.675Z,17.37
2022-12-19T14:30:29.692Z,18.37
2022-12-19T14:33:46.944Z,16.40
2022-12-19T14:36:08.442Z,14.93
2022-12-19T14:39:22.830Z,13.98
2022-12-19T14:42:01.300Z,16.00
2022-12-19T14:52:35.958Z,15.63
2022-12-19T14:52:44.956Z,16.02
2022-12-19T14:54:26.678Z,16.50
2022-12-19T14:54:34.886Z,15.30
2022-12-19T14:56:54.479Z,16.17
2022-12-19T14:59:08.427Z,16.03
2022-12-19T15:01:39.083Z,16.17
2022-12-19T15:04:49.513Z,14.93
2022-12-19T15:07:12.691Z,16.90
2022-12-19T15:11:00.784Z,15.60
2022-12-19T15:14:51.618Z,14.60
2022-12-19T15:15:59.304Z,14.40
2022-12-19T15:18:31.573Z,16.30
2022-12-19T15:21:03.413Z,16.17
2022-12-19T15:23:36.310Z,14.90
2022-12-19T15:26:09.539Z,17.57
2022-12-19T15:28:43.201Z,13.73
2022-12-19T15:31:35.807Z,17.42
2022-12-19T15:34:34.374Z,15.07
2022-12-19T15:37:05.825Z,17.07
2022-12-19T15:39:38.394Z,17.50
2022-12-19T15:42:14.683Z,15.87
2022-12-19T15:44:46.519Z,15.00
2022-12-19T15:47:20.884Z,14.63
2022-12-19T15:52:22.369Z,15.13
2022-12-19T15:54:56.790Z,15.53
2022-12-19T16:00:03.207Z,14.57
2022-12-19T16:05:29.265Z,17.50
2022-12-19T16:07:59.837Z,15.77
2022-12-19T16:10:32.570Z,16.80
2022-12-19T16:13:02.627Z,14.27
2022-12-19T16:15:34.286Z,16.63
2022-12-19T16:18:06.544Z,15.47
2022-12-19T16:20:39.558Z,14.90
2022-12-19T16:23:10.117Z,16.60
2022-12-19T16:25:45.382Z,14.33
2022-12-19T16:28:21.019Z,16.27
2022-12-19T16:30:51.876Z,16.60
2022-12-19T16:33:24.547Z,15.23
2022-12-19T16:36:04.212Z,15.97
2022-12-19T16:38:36.021Z,15.83
2022-12-19T16:41:08.765Z,14.50
2022-12-19T16:43:41.061Z,16.73
2022-12-19T16:46:15.528Z,15.50
2022-12-19T16:51:21.936Z,13.57
2022-12-19T16:53:52.516Z,16.40
2022-12-19T16:56:33.124Z,15.33
2022-12-19T16:59:05.735Z,16.60
2022-12-19T17:01:35.889Z,17.93
2022-12-19T17:04:05.970Z,16.53
2022-12-19T17:06:36.175Z,16.63
2022-12-19T17:09:06.272Z,15.77
2022-12-19T17:11:39.169Z,15.50
2022-12-19T17:14:13.999Z,16.60
2022-12-19T17:16:44.223Z,15.70
2022-12-19T17:19:22.061Z,14.83
2022-12-19T17:21:52.863Z,15.73
2022-12-19T17:24:22.942Z,14.90
2022-12-19T17:26:55.448Z,14.40
2022-12-19T17:29:25.439Z,15.40
2022-12-19T17:31:55.609Z,14.07
2022-12-19T17:34:29.345Z,16.63
2022-12-19T17:37:00.462Z,16.15
2022-12-19T17:39:32.478Z,13.77
2022-12-19T17:42:15.171Z,15.67
2022-12-19T17:44:45.175Z,17.10
2022-12-19T17:47:16.262Z,17.33
2022-12-19T17:49:46.429Z,17.40
2022-12-19T17:52:18.926Z,18.40
2022-12-19T17:54:49.211Z,16.47
2022-12-19T17:57:22.203Z,14.90
2022-12-19T17:59:52.171Z,16.43
2022-12-19T18:02:25.349Z,14.97
2022-12-19T18:04:58.295Z,17.70
2022-12-19T18:07:28.344Z,17.07
2022-12-19T18:09:58.814Z,15.57
2022-12-19T18:12:31.421Z,17.00
2022-12-19T18:15:01.377Z,16.30
2022-12-19T18:17:31.340Z,15.47
2022-12-19T18:20:03.360Z,15.07
2022-12-19T18:22:33.567Z,14.97
2022-12-19T18:25:03.773Z,14.87
2022-12-19T18:27:37.073Z,14.77
2022-12-19T18:30:10.301Z,15.40
2022-12-19T18:32:40.522Z,14.87
2022-12-19T18:35:17.924Z,14.77
2022-12-19T18:37:48.910Z,14.10
2022-12-19T18:40:24.726Z,13.47
2022-12-19T18:43:02.254Z,14.13
2022-12-19T18:45:37.906Z,14.83
2022-12-19T18:48:10.952Z,13.90
2022-12-19T18:50:41.049Z,16.80
2022-12-19T18:53:14.295Z,14.87
2022-12-19T18:55:44.372Z,16.13
2022-12-19T18:58:17.010Z,14.87
2022-12-19T19:00:47.636Z,13.63
2022-12-19T19:03:20.113Z,16.37
2022-12-19T19:05:50.375Z,13.90
2022-12-19T19:08:22.137Z,15.57
2022-12-19T19:11:01.697Z,14.13
2022-12-19T19:13:34.287Z,15.10
2022-12-19T19:16:06.758Z,14.10
2022-12-19T19:18:39.457Z,14.50
2022-12-19T19:21:12.561Z,13.77
2022-12-19T19:23:45.551Z,15.10
2022-12-19T19:26:15.807Z,15.23
2022-12-19T19:28:52.269Z,16.13
2022-12-19T19:31:26.458Z,17.27
2022-12-19T19:34:00.845Z,14.65
2022-12-19T19:36:33.911Z,15.07
2022-12-19T19:39:05.349Z,16.03
2022-12-19T19:41:35.327Z,13.77
2022-12-19T19:44:08.064Z,14.23
2022-12-19T19:46:38.006Z,14.67
2022-12-19T19:49:07.978Z,16.33
2022-12-19T19:51:37.992Z,22.17
2022-12-19T19:54:08.195Z,16.17
2022-12-19T19:56:38.326Z,16.60
2022-12-19T19:59:10.913Z,14.63
2022-12-19T20:01:41.190Z,15.93
2022-12-19T20:04:11.253Z,16.50
2022-12-19T20:06:41.226Z,15.13
2022-12-19T20:09:11.297Z,15.27
2022-12-19T20:11:41.348Z,15.93
2022-12-19T20:14:13.896Z,15.73
2022-12-19T20:16:43.902Z,14.33
2022-12-19T20:19:15.739Z,17.63
2022-12-19T20:21:45.877Z,13.10
2022-12-19T20:24:16.233Z,14.53
2022-12-19T20:26:46.244Z,14.37
2022-12-19T20:29:19.039Z,14.00
2022-12-19T20:31:49.281Z,15.43
2022-12-19T20:34:20.534Z,16.20
2022-12-19T20:36:50.486Z,14.70
2022-12-19T20:39:22.266Z,15.80
2022-12-19T20:41:52.958Z,15.90
2022-12-19T20:44:25.694Z,14.70
2022-12-19T20:46:55.819Z,14.73
2022-12-19T20:49:26.328Z,15.43
2022-12-19T20:51:56.698Z,15.63
2022-12-19T20:54:26.930Z,16.73
2022-12-19T20:56:56.883Z,15.43
2022-12-19T20:59:29.404Z,14.43
2022-12-19T21:02:00.703Z,15.17
2022-12-19T21:04:31.234Z,14.40
2022-12-19T21:07:01.357Z,17.27
2022-12-19T21:09:31.451Z,16.23
2022-12-19T21:12:01.396Z,15.20
2022-12-19T21:14:34.244Z,14.23
2022-12-19T21:17:04.176Z,15.50
2022-12-19T21:19:34.118Z,13.97
2022-12-19T21:22:04.081Z,16.30
2022-12-19T21:24:34.203Z,15.03
2022-12-19T21:27:04.179Z,15.77
2022-12-19T21:29:36.783Z,15.67
2022-12-19T21:32:06.803Z,16.20
2022-12-19T21:34:36.991Z,15.83
2022-12-19T21:37:06.914Z,13.77
2022-12-19T21:39:36.871Z,15.90
2022-12-19T21:42:07.069Z,15.60
2022-12-19T21:44:39.755Z,13.83
2022-12-19T21:47:09.858Z,15.87
2022-12-19T21:49:39.944Z,13.87
2022-12-19T21:52:10.212Z,14.90
2022-12-19T21:54:40.305Z,15.73
2022-12-19T21:57:10.340Z,15.30
2022-12-19T21:59:42.840Z,16.27
2022-12-19T22:02:13.287Z,16.00
2022-12-19T22:04:43.456Z,15.47
2022-12-19T22:07:13.429Z,16.67
2022-12-19T22:09:43.379Z,14.57
2022-12-19T22:12:15.445Z,15.60
2022-12-19T22:14:48.791Z,16.87
2022-12-19T22:17:18.865Z,17.30
2022-12-19T22:19:49.098Z,16.10
2022-12-19T22:22:19.106Z,17.97
2022-12-19T22:24:49.041Z,17.33
2022-12-19T22:27:19.004Z,17.07
2022-12-19T22:29:51.613Z,16.10
2022-12-19T22:32:21.536Z,16.43
2022-12-19T22:34:51.880Z,15.60
2022-12-19T22:37:21.875Z,16.27
2022-12-19T22:39:51.825Z,16.43
2022-12-19T22:42:21.800Z,16.27
2022-12-19T22:44:55.598Z,15.60
2022-12-19T22:47:25.552Z,17.65
2022-12-19T22:49:56.317Z,16.37
2022-12-19T22:52:26.339Z,16.17
2022-12-19T22:54:56.356Z,16.43
2022-12-19T22:57:26.473Z,14.43
2022-12-19T22:59:58.989Z,15.30
2022-12-19T23:02:29.002Z,14.40
2022-12-19T23:04:59.493Z,15.27
2022-12-19T23:07:29.501Z,16.43
2022-12-19T23:09:59.519Z,16.50
2022-12-19T23:12:29.489Z,17.10
2022-12-19T23:15:02.247Z,16.43
2022-12-19T23:17:32.254Z,19.23
2022-12-19T23:20:02.240Z,16.70
2022-12-19T23:22:32.170Z,16.80
2022-12-19T23:25:02.143Z,17.30
2022-12-19T23:27:32.122Z,16.40
2022-12-19T23:30:04.639Z,18.20
2022-12-19T23:32:35.069Z,16.93
2022-12-19T23:35:05.123Z,16.90
2022-12-19T23:37:35.250Z,16.40
2022-12-19T23:40:05.362Z,20.83
2022-12-19T23:42:35.316Z,17.00
2022-12-19T23:45:09.004Z,20.27
2022-12-19T23:47:38.996Z,18.77
2022-12-19T23:50:10.691Z,17.70
2022-12-19T23:52:41.625Z,17.60
2022-12-19T23:55:12.484Z,16.53
2022-12-19T23:57:42.514Z,19.00
